Time;durP1;ratioP1;P1;durP2;ratioP2;P2;SDS_P1;SDS_P2;PMS_P1;PMS_P2;Temp;Humidity;BMP_temperature;BMP_pressure;BME280_temperature;BME280_humidity;BME280_pressure;Samples;Min_cycle;Max_cycle;Signal;HPM_P1;HPM_P2
2022/05/04 00:00:44;;;;;;;5.37;2.77;;;8.60;99.90;;;;;;5041342;28;20189;-80
2022/05/04 00:03:11;;;;;;;4.20;3.17;;;8.70;99.90;;;;;;5026592;28;20202;-79
2022/05/04 00:05:37;;;;;;;4.90;3.10;;;8.80;99.90;;;;;;5026140;28;20209;-80
2022/05/04 00:08:03;;;;;;;5.10;3.20;;;8.80;99.90;;;;;;5026421;28;20543;-82
2022/05/04 00:10:30;;;;;;;4.57;3.00;;;9.00;99.90;;;;;;5041315;28;20241;-79
2022/05/04 00:12:57;;;;;;;4.07;2.57;;;9.00;99.90;;;;;;5040835;28;20206;-81
2022/05/04 00:15:23;;;;;;;5.47;3.07;;;9.10;99.90;;;;;;5040833;28;20191;-79
2022/05/04 00:17:48;;;;;;;3.67;2.80;;;9.00;99.90;;;;;;5040799;28;20191;-80
2022/05/04 00:20:14;;;;;;;3.70;2.90;;;9.00;99.90;;;;;;5024533;28;20294;-80
2022/05/04 00:22:40;;;;;;;5.33;2.73;;;9.00;99.90;;;;;;5041620;28;20221;-78
2022/05/04 00:25:06;;;;;;;4.33;2.87;;;9.00;99.90;;;;;;5040481;28;20215;-80
2022/05/04 00:27:33;;;;;;;4.70;2.80;;;9.10;99.90;;;;;;5025890;28;20542;-82
2022/05/04 00:29:58;;;;;;;6.03;3.53;;;9.20;99.90;;;;;;5041476;28;20238;-79
2022/05/04 00:32:24;;;;;;;4.77;2.57;;;9.30;99.90;;;;;;5026225;28;20781;-80
2022/05/04 00:34:50;;;;;;;4.80;3.03;;;9.30;99.90;;;;;;5026147;28;20191;-79
2022/05/04 00:37:15;;;;;;;3.60;2.73;;;9.30;99.90;;;;;;5041445;28;20179;-80
2022/05/04 00:39:41;;;;;;;4.53;2.50;;;9.30;99.90;;;;;;5041356;28;20214;-80
2022/05/04 00:42:12;;;;;;;3.10;2.27;;;9.30;99.90;;;;;;5041618;28;20294;-81
2022/05/04 00:44:38;;;;;;;6.60;2.80;;;9.30;99.90;;;;;;5025748;28;20238;-79
2022/05/04 00:47:04;;;;;;;5.07;2.97;;;9.30;99.90;;;;;;5041484;28;20619;-79
2022/05/04 00:49:30;;;;;;;6.60;2.83;;;9.30;99.90;;;;;;5026140;28;20179;-82
2022/05/04 00:51:56;;;;;;;3.63;3.03;;;9.10;99.90;;;;;;5041799;28;20213;-82
2022/05/04 00:54:22;;;;;;;3.33;2.50;;;8.90;99.90;;;;;;5041209;28;20553;-80
2022/05/04 00:56:48;;;;;;;7.30;3.10;;;8.90;99.90;;;;;;5040323;28;20190;-79
2022/05/04 00:59:14;;;;;;;5.80;3.17;;;8.80;99.90;;;;;;5040656;28;20190;-80
2022/05/04 01:01:40;;;;;;;6.80;2.90;;;8.90;99.90;;;;;;5040820;28;20268;-80
2022/05/04 01:04:05;;;;;;;3.95;2.95;;;8.80;99.90;;;;;;5044678;28;20194;-81
2022/05/04 01:06:33;;;;;;;5.30;3.17;;;8.80;99.90;;;;;;5029800;28;20187;-81
2022/05/04 01:08:58;;;;;;;3.97;2.70;;;8.70;99.90;;;;;;5044989;28;20726;-80
2022/05/04 01:11:24;;;;;;;4.47;2.80;;;8.80;99.90;;;;;;5030005;28;20230;-79
2022/05/04 01:14:03;;;;;;;4.17;3.17;;;8.70;99.90;;;;;;5044681;28;20205;-80
2022/05/04 01:16:30;;;;;;;3.97;2.70;;;8.70;99.90;;;;;;5044522;28;20204;-80
2022/05/04 01:18:56;;;;;;;4.80;3.00;;;8.70;99.90;;;;;;5043985;28;20187;-79
2022/05/04 01:21:21;;;;;;;4.30;2.90;;;8.60;99.90;;;;;;5042974;28;20214;-80
2022/05/04 01:23:47;;;;;;;3.03;2.60;;;8.60;99.90;;;;;;5028036;28;20187;-80
2022/05/04 01:26:16;;;;;;;5.97;3.20;;;8.60;99.90;;;;;;5042971;28;20724;-80
2022/05/04 01:28:43;;;;;;;4.33;2.83;;;8.50;99.90;;;;;;5044372;28;20207;-81
2022/05/04 01:31:09;;;;;;;3.77;2.70;;;8.50;99.90;;;;;;5029113;28;20183;-79
2022/05/04 01:33:34;;;;;;;4.50;3.00;;;8.50;99.90;;;;;;5044749;28;20203;-80
2022/05/04 01:36:00;;;;;;;5.13;3.10;;;8.40;99.90;;;;;;5044688;28;20207;-81
2022/05/04 01:38:26;;;;;;;3.33;2.93;;;8.40;99.90;;;;;;5044454;28;20237;-82
2022/05/04 01:40:51;;;;;;;6.33;3.23;;;8.30;99.90;;;;;;5044347;28;20578;-78
2022/05/04 01:43:17;;;;;;;5.20;3.10;;;8.20;99.90;;;;;;5029460;28;20202;-80
2022/05/04 01:45:42;;;;;;;4.67;3.30;;;8.20;99.90;;;;;;5044292;28;20218;-80
2022/05/04 01:48:08;;;;;;;4.93;3.30;;;8.20;99.90;;;;;;5044537;28;20193;-79
2022/05/04 01:50:34;;;;;;;4.47;3.23;;;8.10;99.90;;;;;;5028460;28;20636;-79
2022/05/04 01:52:59;;;;;;;4.17;2.80;;;8.10;99.90;;;;;;5044604;28;20198;-80
2022/05/04 01:55:25;;;;;;;4.13;2.90;;;8.00;99.90;;;;;;5028688;28;20273;-79
2022/05/04 01:57:51;;;;;;;4.73;3.00;;;8.00;99.90;;;;;;5043677;28;20561;-79
2022/05/04 02:00:17;;;;;;;5.20;2.93;;;8.00;99.90;;;;;;5043919;28;20182;-80
2022/05/04 02:02:43;;;;;;;3.30;2.80;;;8.10;99.90;;;;;;5028780;28;20211;-80
2022/05/04 02:05:10;;;;;;;5.70;3.00;;;8.10;99.90;;;;;;5028372;28;20207;-78
2022/05/04 02:07:36;;;;;;;6.77;2.87;;;8.10;99.90;;;;;;5028336;28;20190;-80
2022/05/04 02:10:06;;;;;;;4.43;2.67;;;8.30;99.90;;;;;;5043255;28;20183;-79
2022/05/04 02:12:34;;;;;;;4.80;2.93;;;8.40;99.90;;;;;;5028603;28;20229;-79
2022/05/04 02:15:00;;;;;;;2.63;2.40;;;8.40;99.90;;;;;;5027164;28;20241;-80
2022/05/04 02:17:26;;;;;;;4.87;2.60;;;8.40;99.90;;;;;;5028493;28;20191;-79
2022/05/04 02:19:51;;;;;;;5.97;2.90;;;8.30;99.90;;;;;;5043299;28;20621;-79
2022/05/04 02:22:18;;;;;;;5.90;2.87;;;8.30;99.90;;;;;;5043687;28;20206;-79
2022/05/04 02:24:43;;;;;;;5.20;2.80;;;8.30;99.90;;;;;;5043296;28;20274;-79
2022/05/04 02:27:09;;;;;;;2.93;2.70;;;8.20;99.90;;;;;;5028246;28;20182;-79
2022/05/04 02:29:34;;;;;;;4.73;3.13;;;8.10;99.90;;;;;;5043216;28;20991;-80
2022/05/04 02:32:00;;;;;;;3.43;2.70;;;8.10;99.90;;;;;;5043649;28;20245;-80
2022/05/04 02:34:26;;;;;;;4.23;3.23;;;7.90;99.90;;;;;;5043256;28;20198;-80
2022/05/04 02:39:36;;;;;;;3.00;2.67;;;7.60;99.90;;;;;;5028154;28;20244;-79
2022/05/04 02:42:01;;;;;;;5.80;2.97;;;7.60;99.90;;;;;;5043374;28;20211;-80
2022/05/04 02:44:27;;;;;;;8.50;3.03;;;7.50;99.90;;;;;;5043019;28;20257;-79
2022/05/04 02:46:52;;;;;;;5.07;2.97;;;7.40;99.90;;;;;;5043204;28;20190;-79
2022/05/04 02:49:18;;;;;;;3.77;2.90;;;7.50;99.90;;;;;;5043140;28;20653;-79
2022/05/04 02:51:44;;;;;;;4.70;3.40;;;7.50;99.90;;;;;;5027310;28;20226;-79
2022/05/04 02:54:10;;;;;;;4.87;3.30;;;7.40;99.90;;;;;;5043032;28;20179;-80
2022/05/04 02:56:36;;;;;;;4.83;2.93;;;7.40;99.90;;;;;;5042596;28;20187;-78
2022/05/04 02:59:02;;;;;;;7.70;3.50;;;7.30;99.90;;;;;;5043204;28;20179;-80
2022/05/04 03:04:12;;;;;;;5.23;2.83;;;7.20;99.90;;;;;;5027760;28;20182;-78
2022/05/04 03:06:39;;;;;;;5.47;3.37;;;7.20;99.90;;;;;;5042299;28;20187;-79
2022/05/04 03:09:06;;;;;;;5.93;3.10;;;7.20;99.90;;;;;;5043041;28;20280;-79
2022/05/04 03:14:20;;;;;;;9.27;3.57;;;7.20;99.90;;;;;;5027317;28;20248;-79
2022/05/04 03:16:49;;;;;;;7.10;3.57;;;7.20;99.90;;;;;;5042122;28;20191;-77
2022/05/04 03:19:16;;;;;;;5.83;3.47;;;7.20;99.90;;;;;;5042143;28;20205;-80
2022/05/04 03:21:42;;;;;;;3.70;3.10;;;7.20;99.90;;;;;;5042957;28;20209;-81
2022/05/04 03:24:08;;;;;;;5.87;3.47;;;7.20;99.90;;;;;;5042364;28;20665;-80
2022/05/04 03:26:33;;;;;;;4.93;3.07;;;7.10;99.90;;;;;;5042021;28;20193;-80
2022/05/04 03:28:59;;;;;;;5.07;3.20;;;7.10;99.90;;;;;;5042118;28;20829;-80
2022/05/04 03:31:25;;;;;;;3.00;2.70;;;7.00;99.90;;;;;;5042282;28;20791;-79
2022/05/04 03:33:50;;;;;;;5.30;3.17;;;7.00;99.90;;;;;;5040196;28;20197;-81
2022/05/04 03:36:16;;;;;;;4.80;3.63;;;6.90;99.90;;;;;;5024139;28;20195;-80
2022/05/04 03:38:44;;;;;;;6.50;3.17;;;6.80;99.90;;;;;;5024013;28;20645;-81
2022/05/04 03:41:13;;;;;;;5.60;3.40;;;6.80;99.90;;;;;;5039614;28;20190;-82
2022/05/04 03:43:39;;;;;;;5.60;3.77;;;6.70;99.90;;;;;;5039940;28;20189;-81
2022/05/04 03:46:15;;;;;;;7.30;3.47;;;6.80;99.90;;;;;;5039451;28;20214;-81
2022/05/04 03:48:43;;;;;;;5.63;3.33;;;6.80;99.90;;;;;;5025237;28;20262;-80
2022/05/04 03:51:09;;;;;;;9.50;3.20;;;6.70;99.90;;;;;;5040441;28;20245;-81
2022/05/04 03:53:36;;;;;;;4.87;2.90;;;6.80;99.90;;;;;;5039598;28;20183;-80
2022/05/04 03:56:02;;;;;;;6.63;3.37;;;6.70;99.90;;;;;;5040523;28;20191;-82
2022/05/04 03:58:28;;;;;;;4.97;3.17;;;6.70;99.90;;;;;;5039100;28;20903;-80
2022/05/04 04:00:53;;;;;;;5.73;3.00;;;6.80;99.90;;;;;;5038621;28;20191;-80
2022/05/04 04:03:19;;;;;;;6.63;3.03;;;6.70;99.90;;;;;;5039079;28;20297;-80
2022/05/04 04:05:44;;;;;;;7.53;3.03;;;6.70;99.90;;;;;;5024203;28;20735;-80
2022/05/04 04:08:10;;;;;;;4.93;3.40;;;6.70;99.90;;;;;;5038765;28;20497;-80
2022/05/04 04:10:35;;;;;;;5.73;3.30;;;6.70;99.90;;;;;;5024081;28;20676;-80
2022/05/04 04:13:02;;;;;;;6.53;3.33;;;6.70;99.90;;;;;;5039263;28;20310;-81
2022/05/04 04:15:27;;;;;;;6.07;3.27;;;6.70;99.90;;;;;;5039480;28;20218;-81
2022/05/04 04:17:54;;;;;;;6.97;3.20;;;6.80;99.90;;;;;;5039919;28;20206;-81
2022/05/04 04:23:04;;;;;;;5.90;2.97;;;6.60;99.90;;;;;;5024362;28;21174;-80
2022/05/04 04:25:30;;;;;;;5.23;2.90;;;6.60;99.90;;;;;;5024068;28;20259;-80
2022/05/04 04:27:55;;;;;;;4.47;3.13;;;6.70;99.90;;;;;;5039638;28;20275;-80
2022/05/04 04:30:21;;;;;;;5.93;2.90;;;6.90;99.90;;;;;;5039086;28;20179;-80
2022/05/04 04:32:46;;;;;;;6.53;3.60;;;6.90;99.90;;;;;;5024508;28;20214;-81
2022/05/04 04:35:12;;;;;;;5.73;3.07;;;7.00;99.90;;;;;;5039172;28;20187;-80
2022/05/04 04:37:38;;;;;;;6.63;3.40;;;7.10;99.90;;;;;;5023623;28;20316;-80
2022/05/04 04:40:04;;;;;;;6.90;3.70;;;7.10;99.90;;;;;;5038943;28;20187;-80
2022/05/04 04:42:29;;;;;;;5.10;2.67;;;7.10;99.90;;;;;;5038983;28;20752;-81
2022/05/04 04:44:55;;;;;;;6.57;3.07;;;7.20;99.90;;;;;;5038787;28;20971;-81
2022/05/04 04:47:20;;;;;;;3.70;3.10;;;7.40;99.90;;;;;;5038484;28;20649;-81
2022/05/04 04:49:46;;;;;;;4.23;3.00;;;7.40;99.90;;;;;;5038485;28;20281;-81
2022/05/04 04:52:11;;;;;;;4.77;2.70;;;7.50;99.90;;;;;;5036962;28;20198;-81
2022/05/04 04:54:37;;;;;;;4.70;2.50;;;7.70;99.90;;;;;;5038733;28;20213;-83
2022/05/04 04:57:03;;;;;;;4.80;2.70;;;7.70;99.90;;;;;;5023166;28;20700;-81
2022/05/04 04:59:28;;;;;;;4.90;3.07;;;7.70;99.90;;;;;;5038300;28;20598;-80
2022/05/04 05:01:54;;;;;;;4.83;2.83;;;7.60;99.90;;;;;;5038829;28;20719;-81
2022/05/04 05:04:20;;;;;;;5.27;3.30;;;7.50;99.90;;;;;;5038310;28;20195;-80
2022/05/04 05:06:45;;;;;;;10.90;3.30;;;7.90;99.90;;;;;;5038384;28;20365;-80
2022/05/04 05:09:11;;;;;;;5.27;2.87;;;8.40;99.90;;;;;;5038847;28;20554;-81
2022/05/04 05:11:36;;;;;;;6.47;3.10;;;8.90;99.90;;;;;;5037263;28;20656;-80
2022/05/04 05:16:46;;;;;;;7.17;3.43;;;9.80;99.90;;;;;;5024939;28;20245;-80
2022/05/04 05:19:11;;;;;;;5.13;3.17;;;10.30;99.90;;;;;;5025819;28;20652;-81
2022/05/04 05:21:37;;;;;;;6.65;3.17;;;10.90;99.90;;;;;;5040771;28;20636;-81
2022/05/04 05:24:03;;;;;;;4.88;2.42;;;11.10;99.90;;;;;;5040570;28;20201;-81
2022/05/04 05:26:28;;;;;;;5.43;3.15;;;11.30;99.90;;;;;;5040017;28;20398;-81
2022/05/04 05:28:54;;;;;;;5.43;2.88;;;11.70;99.90;;;;;;5040360;28;21166;-81
2022/05/04 05:31:20;;;;;;;4.32;2.67;;;12.00;99.90;;;;;;5040322;28;20203;-81
2022/05/04 05:33:46;;;;;;;7.05;3.53;;;12.40;99.90;;;;;;5025759;28;20274;-82
2022/05/04 05:36:12;;;;;;;4.22;2.90;;;12.70;99.90;;;;;;5040580;28;20185;-81
2022/05/04 05:38:38;;;;;;;4.45;3.17;;;12.70;99.90;;;;;;5040816;28;20185;-81
2022/05/04 05:41:03;;;;;;;8.65;2.92;;;13.10;99.90;;;;;;5025830;28;20214;-82
2022/05/04 05:43:29;;;;;;;6.35;3.30;;;13.20;99.90;;;;;;5041391;28;20199;-82
2022/05/04 05:45:55;;;;;;;9.23;3.40;;;13.60;99.90;;;;;;5041209;28;20207;-81
2022/05/04 05:48:20;;;;;;;5.85;3.03;;;13.70;99.90;;;;;;5040422;28;20179;-81
2022/05/04 05:50:47;;;;;;;8.82;3.63;;;14.10;99.90;;;;;;5043431;28;20193;-81
2022/05/04 05:53:17;;;;;;;7.10;3.60;;;14.00;99.90;;;;;;5044936;28;20202;-81
2022/05/04 05:55:42;;;;;;;6.78;3.65;;;14.10;99.90;;;;;;5044512;28;20182;-82
2022/05/04 05:58:10;;;;;;;6.57;3.25;;;14.40;99.90;;;;;;5029428;28;20198;-81
2022/05/04 06:00:36;;;;;;;7.07;2.85;;;14.60;99.90;;;;;;5044367;28;20229;-82
2022/05/04 06:03:01;;;;;;;5.72;2.95;;;14.70;99.90;;;;;;5027625;28;20624;-81
2022/05/04 06:05:27;;;;;;;10.65;2.97;;;15.20;99.90;;;;;;5043641;28;20203;-81
2022/05/04 06:07:53;;;;;;;6.22;3.20;;;15.20;99.90;;;;;;5043495;28;20178;-81
2022/05/04 06:10:18;;;;;;;6.00;2.70;;;15.10;99.90;;;;;;5028773;28;20182;-81
2022/05/04 06:12:44;;;;;;;5.63;3.05;;;15.20;99.90;;;;;;5043562;28;20222;-81
2022/05/04 06:15:11;;;;;;;5.65;3.20;;;15.50;99.90;;;;;;5028246;28;20226;-81
2022/05/04 06:17:37;;;;;;;6.50;3.08;;;16.00;99.90;;;;;;5043924;28;20183;-81
2022/05/04 06:20:04;;;;;;;9.60;3.20;;;16.40;99.90;;;;;;5044295;28;20197;-81
2022/05/04 06:22:30;;;;;;;8.00;3.47;;;16.50;99.90;;;;;;5026266;28;20210;-82
2022/05/04 06:24:56;;;;;;;7.53;3.40;;;16.60;99.90;;;;;;5042080;28;20356;-82
2022/05/04 06:27:22;;;;;;;9.27;3.35;;;16.60;99.90;;;;;;5024588;28;21383;-81
2022/05/04 06:35:16;;;;;;;9.25;3.40;;;16.00;99.90;;;;;;5026132;28;20197;-81
2022/05/04 06:37:41;;;;;;;6.85;2.92;;;15.50;99.90;;;;;;5039260;28;20446;-80
2022/05/04 06:40:08;;;;;;;8.02;3.42;;;15.30;99.90;;;;;;5024283;28;20194;-81
2022/05/04 06:42:34;;;;;;;7.32;3.47;;;14.80;99.90;;;;;;5039656;28;20215;-81
2022/05/04 06:45:00;;;;;;;10.38;3.63;;;14.40;99.90;;;;;;5040831;28;20211;-82
2022/05/04 06:47:25;;;;;;;7.15;3.65;;;14.40;99.90;;;;;;5040379;28;20253;-81
2022/05/04 06:49:51;;;;;;;8.15;3.72;;;14.40;99.90;;;;;;5027168;28;20191;-80
2022/05/04 06:52:16;;;;;;;5.53;3.15;;;13.90;99.90;;;;;;5039254;28;20620;-81
2022/05/04 06:54:42;;;;;;;7.90;3.70;;;13.90;99.90;;;;;;5040045;28;20612;-79
2022/05/04 06:57:08;;;;;;;8.43;3.90;;;13.90;99.90;;;;;;5039811;28;20190;-80
2022/05/04 06:59:34;;;;;;;7.63;3.47;;;13.90;99.90;;;;;;5025763;28;20194;-80
2022/05/04 07:01:59;;;;;;;7.47;3.67;;;13.90;99.90;;;;;;5023432;28;20244;-79
2022/05/04 07:04:25;;;;;;;7.20;2.72;;;14.00;99.90;;;;;;5025501;28;20187;-80
2022/05/04 07:06:51;;;;;;;7.60;3.80;;;14.00;99.90;;;;;;5024867;28;20257;-79
2022/05/04 07:09:16;;;;;;;7.57;3.38;;;14.00;99.90;;;;;;5039682;28;20182;-79
2022/05/04 07:11:43;;;;;;;7.70;4.00;;;13.90;99.90;;;;;;5023935;28;20631;-80
2022/05/04 07:14:08;;;;;;;6.78;3.40;;;13.80;99.90;;;;;;5040813;28;20186;-86
2022/05/04 07:16:34;;;;;;;8.70;3.50;;;13.60;99.90;;;;;;5039044;28;20649;-84
2022/05/04 07:18:59;;;;;;;8.07;3.05;;;13.70;99.90;;;;;;5020881;28;20193;-84
2022/05/04 07:21:25;;;;;;;6.25;3.08;;;13.90;99.90;;;;;;5040537;28;20333;-83
2022/05/04 07:23:50;;;;;;;7.13;3.35;;;13.70;99.90;;;;;;5040749;28;20191;-83
2022/05/04 07:26:16;;;;;;;4.75;3.00;;;13.90;99.90;;;;;;5039632;28;20711;-83
2022/05/04 07:28:42;;;;;;;7.68;2.50;;;14.00;99.90;;;;;;5040357;28;20191;-84
2022/05/04 07:31:07;;;;;;;7.55;2.72;;;14.20;99.90;;;;;;5040004;28;20696;-83
2022/05/04 07:33:33;;;;;;;7.55;2.67;;;14.30;99.90;;;;;;5040851;28;20183;-84
2022/05/04 07:35:58;;;;;;;9.02;2.75;;;14.20;99.90;;;;;;5040380;28;20699;-84
2022/05/04 07:38:24;;;;;;;6.57;2.67;;;14.30;99.90;;;;;;5040415;28;20215;-84
2022/05/04 07:43:34;;;;;;;6.68;2.90;;;13.70;99.90;;;;;;5026045;28;20189;-83
2022/05/04 07:45:59;;;;;;;6.72;3.13;;;13.20;99.90;;;;;;5040236;28;20215;-82
2022/05/04 07:48:25;;;;;;;5.68;2.53;;;13.10;99.90;;;;;;5039450;28;20187;-83
2022/05/04 07:50:50;;;;;;;5.65;2.95;;;12.90;99.90;;;;;;5025033;28;20252;-82
2022/05/04 07:53:16;;;;;;;7.72;3.15;;;12.70;99.90;;;;;;5040062;28;20294;-84
2022/05/04 07:55:41;;;;;;;5.85;2.80;;;13.20;99.90;;;;;;5025169;28;20182;-83
2022/05/04 07:58:07;;;;;;;6.03;2.65;;;13.50;99.90;;;;;;5039304;28;20230;-83
2022/05/04 08:06:01;;;;;;;8.05;2.97;;;13.70;99.90;;;;;;5025553;28;20377;-83
2022/05/04 08:08:26;;;;;;;4.03;2.75;;;14.20;99.90;;;;;;5039859;28;20281;-83
2022/05/04 08:10:52;;;;;;;5.53;3.10;;;14.50;99.90;;;;;;5039299;28;20579;-82
2022/05/04 08:13:20;;;;;;;8.88;2.97;;;14.80;99.90;;;;;;5039031;28;20215;-83
2022/05/04 08:15:46;;;;;;;5.45;2.83;;;15.00;99.90;;;;;;5039487;28;20863;-83
2022/05/04 08:18:12;;;;;;;7.05;2.72;;;14.90;99.90;;;;;;5038453;28;20193;-83
2022/05/04 08:20:37;;;;;;;9.40;3.15;;;14.60;99.90;;;;;;5038965;28;20649;-82
2022/05/04 08:23:03;;;;;;;6.97;3.10;;;14.50;99.90;;;;;;5038230;28;20248;-82
2022/05/04 08:25:30;;;;;;;9.52;3.10;;;14.50;99.90;;;;;;5038685;28;20653;-83
2022/05/04 08:27:56;;;;;;;8.77;3.00;;;14.50;99.90;;;;;;5038009;28;20190;-82
2022/05/04 08:30:23;;;;;;;5.30;3.00;;;14.70;99.90;;;;;;5039015;28;20653;-83
2022/05/04 08:32:49;;;;;;;8.05;2.97;;;15.10;99.90;;;;;;5022563;28;20529;-83
2022/05/04 08:35:16;;;;;;;5.72;2.97;;;15.40;99.90;;;;;;5038661;28;20182;-83
2022/05/04 08:37:42;;;;;;;7.25;3.40;;;15.60;99.90;;;;;;5036242;28;20589;-83
2022/05/04 08:40:09;;;;;;;8.77;3.25;;;15.50;99.90;;;;;;5038420;28;20194;-83
2022/05/04 08:42:45;;;;;;;5.78;3.30;;;15.50;99.90;;;;;;5036953;28;20214;-83
2022/05/04 08:45:12;;;;;;;6.07;3.03;;;15.50;99.90;;;;;;5023055;28;20373;-82
2022/05/04 08:47:40;;;;;;;8.15;3.03;;;15.50;99.90;;;;;;5036996;28;20182;-83
2022/05/04 08:50:15;;;;;;;6.43;3.03;;;15.80;99.90;;;;;;5038116;28;20187;-83
2022/05/04 08:52:44;;;;;;;7.65;3.67;;;15.90;99.90;;;;;;5037992;28;20525;-83
2022/05/04 08:55:10;;;;;;;6.65;3.47;;;16.20;99.90;;;;;;5037613;28;20187;-83
2022/05/04 08:57:37;;;;;;;7.53;3.47;;;16.20;99.90;;;;;;5038335;28;20538;-83
2022/05/04 09:00:04;;;;;;;8.65;3.28;;;16.10;99.90;;;;;;5035976;28;20660;-84
2022/05/04 09:02:30;;;;;;;9.32;3.28;;;16.10;99.90;;;;;;5036725;28;20255;-82
2022/05/04 09:05:19;;;;;;;5.28;3.40;;;16.30;99.90;;;;;;5037111;28;20625;-83
2022/05/04 09:07:46;;;;;;;5.13;3.63;;;16.30;99.90;;;;;;5021557;28;20189;-84
2022/05/04 09:10:27;;;;;;;8.43;4.53;;;16.40;99.90;;;;;;5036088;28;20183;-83
2022/05/04 09:12:55;;;;;;;9.40;4.38;;;16.50;99.90;;;;;;5037145;28;20211;-84
2022/05/04 09:15:29;;;;;;;5.63;3.72;;;16.00;99.90;;;;;;5038136;28;20186;-84
2022/05/04 09:18:06;;;;;;;6.30;4.15;;;16.00;99.90;;;;;;5037911;28;20248;-84
2022/05/04 09:20:47;;;;;;;9.60;4.90;;;15.40;99.90;;;;;;5021817;28;20277;-83
2022/05/04 09:23:16;;;;;;;7.55;4.35;;;15.50;99.90;;;;;;5037474;28;20332;-83
2022/05/04 09:25:41;;;;;;;6.22;3.88;;;15.80;99.90;;;;;;5041485;28;20210;-84
2022/05/04 09:28:12;;;;;;;5.88;4.20;;;16.10;99.90;;;;;;5041811;28;20601;-83
2022/05/04 09:30:47;;;;;;;6.10;3.92;;;16.40;99.90;;;;;;5042046;28;20671;-83
2022/05/04 09:33:17;;;;;;;7.65;3.95;;;16.60;99.90;;;;;;5026065;28;20247;-83
2022/05/04 09:35:43;;;;;;;7.85;4.10;;;16.60;99.90;;;;;;5026539;28;20195;-83
2022/05/04 09:46:42;;;;;;;9.75;4.40;;;16.60;99.90;;;;;;5025928;28;20232;-83
2022/05/04 09:49:21;;;;;;;8.68;5.10;;;16.50;99.90;;;;;;5025643;28;20687;-84
2022/05/04 09:51:53;;;;;;;6.28;3.95;;;15.90;99.90;;;;;;5042375;28;20688;-83
2022/05/04 09:54:20;;;;;;;8.15;4.32;;;15.90;99.90;;;;;;5041355;28;20568;-83
2022/05/04 09:56:48;;;;;;;7.65;4.50;;;15.80;99.90;;;;;;5041202;28;20190;-84
2022/05/04 09:59:16;;;;;;;8.45;4.13;;;16.10;99.90;;;;;;5029610;28;20225;-85
2022/05/04 10:01:43;;;;;;;7.72;4.65;;;16.30;99.90;;;;;;5026404;28;20199;-85
2022/05/04 10:04:09;;;;;;;9.27;4.28;;;16.40;99.90;;;;;;5041780;28;20187;-84
2022/05/04 10:06:35;;;;;;;9.30;4.88;;;16.20;99.90;;;;;;5039556;28;20210;-85
2022/05/04 10:09:02;;;;;;;7.53;4.45;;;16.20;99.90;;;;;;5040772;28;20183;-85
2022/05/04 10:11:30;;;;;;;6.18;4.15;;;16.80;99.90;;;;;;5044361;28;20301;-85
2022/05/04 10:14:01;;;;;;;8.30;4.18;;;17.40;99.90;;;;;;5042613;28;20634;-86
2022/05/04 10:16:28;;;;;;;7.43;4.20;;;17.70;99.90;;;;;;5025701;28;20376;-84
2022/05/04 10:18:55;;;;;;;6.68;3.95;;;17.60;99.90;;;;;;5024740;28;20624;-84
2022/05/04 10:21:22;;;;;;;7.15;4.25;;;17.60;99.90;;;;;;5025786;28;20281;-84
2022/05/04 10:23:50;;;;;;;6.80;4.30;;;17.40;99.90;;;;;;5040273;28;20787;-84
2022/05/04 10:26:17;;;;;;;7.95;3.78;;;17.80;99.90;;;;;;5040203;28;20210;-85
2022/05/04 10:31:28;;;;;;;11.43;4.35;;;18.30;99.90;;;;;;5026035;28;20213;-80
2022/05/04 10:33:56;;;;;;;11.55;4.50;;;17.90;99.90;;;;;;5041856;28;20722;-80
2022/05/04 10:36:30;;;;;;;8.20;3.88;;;17.80;99.90;;;;;;5026679;28;20183;-81
2022/05/04 10:38:57;;;;;;;8.40;4.18;;;17.90;99.90;;;;;;5041111;28;20669;-80
2022/05/04 10:41:34;;;;;;;7.93;4.00;;;18.20;99.90;;;;;;5026086;28;20210;-81
2022/05/04 10:44:01;;;;;;;8.63;3.80;;;18.50;99.90;;;;;;5041214;28;20209;-82
2022/05/04 10:46:28;;;;;;;7.00;4.05;;;18.30;99.90;;;;;;5041442;28;20843;-82
2022/05/04 10:48:58;;;;;;;19.70;4.38;;;18.30;99.90;;;;;;5041338;28;20214;-82
2022/05/04 10:51:28;;;;;;;8.32;3.30;;;18.10;99.90;;;;;;5026150;28;20199;-83
2022/05/04 10:54:21;;;;;;;5.72;3.35;;;18.20;99.90;;;;;;5043508;28;20246;-82
2022/05/04 10:56:49;;;;;;;5.93;3.60;;;18.20;99.90;;;;;;5022687;28;20195;-82
2022/05/04 10:59:34;;;;;;;6.82;3.60;;;18.40;99.90;;;;;;5026710;28;20238;-83
2022/05/04 11:02:04;;;;;;;7.35;3.72;;;18.50;99.90;;;;;;5026038;28;20198;-83
2022/05/04 11:04:31;;;;;;;5.47;3.35;;;18.80;99.90;;;;;;5025635;28;20179;-81
2022/05/04 11:06:59;;;;;;;5.78;3.58;;;19.20;99.90;;;;;;5038059;28;20179;-82
2022/05/04 11:09:32;;;;;;;5.15;3.63;;;19.30;99.50;;;;;;5038988;28;20214;-81
2022/05/04 11:12:00;;;;;;;6.90;3.33;;;19.30;99.50;;;;;;5038695;28;20226;-82
2022/05/04 11:14:27;;;;;;;8.15;3.75;;;19.60;99.60;;;;;;5023559;28;20182;-82
2022/05/04 11:16:54;;;;;;;6.18;3.45;;;19.50;99.50;;;;;;5038905;28;20191;-82
2022/05/04 11:19:24;;;;;;;9.43;3.50;;;19.60;99.20;;;;;;5023476;28;20293;-82
2022/05/04 11:21:50;;;;;;;6.45;3.58;;;19.60;98.40;;;;;;5039841;28;20203;-83
2022/05/04 11:24:16;;;;;;;9.38;4.10;;;19.70;98.20;;;;;;5036826;28;20205;-81
2022/05/04 11:26:43;;;;;;;5.60;3.95;;;19.60;98.00;;;;;;5039770;28;20210;-81
2022/05/04 11:29:28;;;;;;;6.53;3.53;;;19.50;98.50;;;;;;5038969;28;20179;-81
2022/05/04 11:32:04;;;;;;;5.97;3.45;;;19.80;98.40;;;;;;5040928;28;20210;-81
2022/05/04 11:34:33;;;;;;;6.45;3.60;;;20.00;96.80;;;;;;5038553;28;20266;-81
2022/05/04 11:37:04;;;;;;;7.03;3.60;;;20.20;97.30;;;;;;5038323;28;20183;-82
2022/05/04 11:39:30;;;;;;;8.38;3.33;;;20.50;96.20;;;;;;5038370;28;20187;-81
2022/05/04 11:41:57;;;;;;;7.30;3.90;;;20.30;96.30;;;;;;5023851;28;20195;-81
2022/05/04 11:44:24;;;;;;;8.90;4.55;;;19.80;96.40;;;;;;5039896;28;20281;-81
2022/05/04 11:46:51;;;;;;;7.57;3.72;;;19.40;97.40;;;;;;5039788;28;20222;-81
2022/05/04 11:49:19;;;;;;;6.70;3.70;;;19.30;97.60;;;;;;5039372;28;20182;-81
2022/05/04 11:51:45;;;;;;;5.65;3.90;;;19.40;97.90;;;;;;5040070;28;20209;-82
2022/05/04 11:54:12;;;;;;;6.70;3.72;;;18.60;98.30;;;;;;5039646;28;20625;-81
2022/05/04 11:56:37;;;;;;;7.30;3.50;;;18.50;98.70;;;;;;5039836;28;20455;-81
2022/05/04 11:59:05;;;;;;;8.90;3.20;;;18.80;98.30;;;;;;5039543;28;20179;-82
2022/05/04 12:01:30;;;;;;;7.00;3.13;;;19.30;98.70;;;;;;5024688;28;20722;-82
2022/05/04 12:03:57;;;;;;;7.30;3.95;;;19.70;98.00;;;;;;5024420;28;20268;-83
2022/05/04 12:06:23;;;;;;;6.82;4.05;;;19.40;97.20;;;;;;5039156;28;20213;-81
2022/05/04 12:08:49;;;;;;;5.88;3.63;;;19.40;96.80;;;;;;5038489;28;20182;-82
2022/05/04 12:11:16;;;;;;;5.75;3.53;;;19.60;97.20;;;;;;5023996;28;20277;-82
2022/05/04 12:13:42;;;;;;;5.55;3.33;;;19.90;96.50;;;;;;5023539;28;20179;-81
2022/05/04 12:16:10;;;;;;;6.80;3.90;;;20.20;96.60;;;;;;5038968;28;20266;-81
2022/05/04 12:18:38;;;;;;;6.43;3.50;;;20.10;96.00;;;;;;5039252;28;20672;-83
2022/05/04 12:21:15;;;;;;;7.15;3.75;;;20.20;95.80;;;;;;5040054;28;20187;-81
2022/05/04 12:23:43;;;;;;;4.75;3.55;;;20.50;95.60;;;;;;5023210;28;20652;-81
2022/05/04 12:26:11;;;;;;;5.88;3.90;;;20.30;95.90;;;;;;5038710;28;20568;-81
2022/05/04 12:28:38;;;;;;;5.20;3.45;;;20.50;95.20;;;;;;5038139;28;20533;-81
2022/05/04 12:33:49;;;;;;;5.85;3.67;;;20.70;94.40;;;;;;5018983;28;20562;-80
2022/05/04 12:36:17;;;;;;;7.70;3.67;;;20.50;94.80;;;;;;5017686;28;20186;-82
2022/05/04 12:38:46;;;;;;;6.47;3.22;;;20.30;94.70;;;;;;5026874;28;20187;-82
2022/05/04 12:41:15;;;;;;;8.68;3.40;;;20.10;95.30;;;;;;5041747;28;20808;-81
2022/05/04 12:43:41;;;;;;;6.90;3.30;;;20.10;94.90;;;;;;5023743;28;20210;-81
2022/05/04 12:46:15;;;;;;;8.18;3.40;;;20.30;95.60;;;;;;5025300;28;20291;-80
2022/05/04 12:48:43;;;;;;;4.82;3.55;;;20.40;94.30;;;;;;5042111;28;20190;-82
2022/05/04 12:51:10;;;;;;;8.32;4.10;;;20.30;94.20;;;;;;5027196;28;20179;-81
2022/05/04 12:53:38;;;;;;;5.38;3.85;;;20.10;94.30;;;;;;5028583;28;20266;-82
2022/05/04 12:58:49;;;;;;;7.43;3.70;;;19.90;94.80;;;;;;5031488;28;20190;-82
2022/05/04 13:01:21;;;;;;;7.38;3.60;;;20.00;95.90;;;;;;5049190;28;20178;-81
2022/05/04 13:03:48;;;;;;;7.13;3.20;;;20.20;95.70;;;;;;5035314;28;20735;-82
2022/05/04 13:06:13;;;;;;;8.48;3.70;;;20.10;95.80;;;;;;5031035;28;20215;-81
2022/05/04 13:08:39;;;;;;;8.25;3.63;;;20.20;96.00;;;;;;5026462;28;20194;-81
2022/05/04 13:11:05;;;;;;;6.82;4.10;;;19.70;96.60;;;;;;5044026;28;20195;-82
2022/05/04 13:13:31;;;;;;;8.93;3.60;;;19.50;96.70;;;;;;5029692;28;20197;-82
2022/05/04 13:15:56;;;;;;;5.60;3.88;;;18.70;97.10;;;;;;5029569;28;20187;-82
2022/05/04 13:18:22;;;;;;;7.50;3.65;;;18.60;98.60;;;;;;5045107;28;20198;-81
2022/05/04 13:20:52;;;;;;;7.93;3.67;;;18.90;99.30;;;;;;5029972;28;20665;-82
2022/05/04 13:23:17;;;;;;;5.28;3.53;;;19.40;99.20;;;;;;5030124;28;20217;-81
2022/05/04 13:25:43;;;;;;;10.70;4.07;;;19.70;96.60;;;;;;5028841;28;20210;-82
2022/05/04 13:28:09;;;;;;;5.90;3.40;;;19.60;97.20;;;;;;5041670;28;20344;-81
2022/05/04 13:30:34;;;;;;;5.15;3.40;;;19.70;96.60;;;;;;5042464;28;20179;-82
2022/05/04 13:33:01;;;;;;;6.85;3.53;;;19.40;97.40;;;;;;5026585;28;20233;-80